Terminal Aerodrome Forecast
Issued by NWS Bismarck, ND

Home | Current Version | Previous Version | Text Only | Print | Product List | Glossary On
Versions: 1 2 3 4 5 6 7 8 9 10 11 12 13 14 15 16 17 18 19 20 21 22
000
FTUS43 KBIS 131000 AAA
TAFBIS
TAF AMD
KBIS 131014Z 1310/1406 31005KT P6SM SKC
     FM131500 33014KT P6SM SKC
     FM131800 32018G26KT P6SM SKC
     FM140200 34009KT P6SM FEW070=

USA.gov is the U.S. government's official web portal to all federal, state and local government web resources and services.